SVA1429 OEMA-OEJN
Flight info
| Callsign | SVA1429 |
|---|---|
| Flight time | 0h 43m |
| Altitude | 28000 |
| Route | SISUD B544 NOMDA |
| Aircraft | A320/M-SDE3FGHIRWY/LB1 |
Departure
| Time | 2026-04-27 20:31 |
|---|---|
| Airport | Prince Mohammad Bin Abdulaziz Airport (OEMA) |
Arrival
| Time | 2026-04-27 21:14 |
|---|---|
| Airport | King Abdulaziz International Airport (OEJN) |
| Time | Latitude | Longitude | Altitude | Speed | Heading |
|---|---|---|---|---|---|
| 2026-04-27 19:57 | 24.55678 | 39.71260 | 2103 ft | 0 kts | 79° |
| 2026-04-27 20:17 | 24.55676 | 39.71247 | 2102 ft | 3 kts | 78° |
| 2026-04-27 20:17 | 24.55672 | 39.71225 | 2102 ft | 3 kts | 77° |
| 2026-04-27 20:17 | 24.55667 | 39.71204 | 2102 ft | 3 kts | 73° |
| 2026-04-27 20:17 | 24.55663 | 39.71190 | 2102 ft | 3 kts | 70° |
| 2026-04-27 20:18 | 24.55652 | 39.71163 | 2102 ft | 3 kts | 53° |
| 2026-04-27 20:18 | 24.55640 | 39.71150 | 2101 ft | 3 kts | 11° |
| 2026-04-27 20:18 | 24.55633 | 39.71148 | 2101 ft | 0 kts | 349° |
| 2026-04-27 20:23 | 24.55660 | 39.71143 | 2102 ft | 10 kts | 349° |
| 2026-04-27 20:23 | 24.55727 | 39.71129 | 2104 ft | 8 kts | 349° |
| 2026-04-27 20:23 | 24.55773 | 39.71119 | 2104 ft | 5 kts | 349° |
| 2026-04-27 20:24 | 24.55810 | 39.71111 | 2105 ft | 10 kts | 349° |
| 2026-04-27 20:24 | 24.55880 | 39.71097 | 2106 ft | 9 kts | 349° |
| 2026-04-27 20:24 | 24.55927 | 39.71086 | 2107 ft | 5 kts | 349° |
| 2026-04-27 20:24 | 24.55959 | 39.71080 | 2108 ft | 4 kts | 348° |
| 2026-04-27 20:25 | 24.56009 | 39.71053 | 2109 ft | 10 kts | 300° |
| 2026-04-27 20:25 | 24.56011 | 39.70984 | 2109 ft | 9 kts | 264° |
| 2026-04-27 20:25 | 24.56006 | 39.70892 | 2107 ft | 16 kts | 293° |
| 2026-04-27 20:25 | 24.56107 | 39.70851 | 2111 ft | 15 kts | 348° |
| 2026-04-27 20:26 | 24.56203 | 39.70829 | 2114 ft | 13 kts | 348° |
| 2026-04-27 20:26 | 24.56276 | 39.70813 | 2116 ft | 9 kts | 349° |
| 2026-04-27 20:26 | 24.56326 | 39.70802 | 2115 ft | 8 kts | 349° |
| 2026-04-27 20:26 | 24.56397 | 39.70788 | 2118 ft | 14 kts | 350° |
| 2026-04-27 20:27 | 24.56540 | 39.70758 | 2117 ft | 24 kts | 349° |
| 2026-04-27 20:27 | 24.56708 | 39.70723 | 2121 ft | 25 kts | 349° |
| 2026-04-27 20:27 | 24.56878 | 39.70686 | 2120 ft | 25 kts | 348° |
| 2026-04-27 20:27 | 24.57049 | 39.70646 | 2123 ft | 25 kts | 348° |
| 2026-04-27 20:28 | 24.57220 | 39.70604 | 2125 ft | 25 kts | 347° |
| 2026-04-27 20:28 | 24.57383 | 39.70578 | 2128 ft | 18 kts | 348° |
| 2026-04-27 20:28 | 24.57506 | 39.70552 | 2131 ft | 18 kts | 349° |
| 2026-04-27 20:28 | 24.57585 | 39.70536 | 2132 ft | 14 kts | 349° |
| 2026-04-27 20:29 | 24.57650 | 39.70492 | 2133 ft | 7 kts | 286° |
| 2026-04-27 20:29 | 24.57653 | 39.70460 | 2134 ft | 1 kts | 261° |
| 2026-04-27 20:29 | 24.57650 | 39.70448 | 2134 ft | 3 kts | 259° |
| 2026-04-27 20:29 | 24.57645 | 39.70419 | 2134 ft | 7 kts | 259° |
| 2026-04-27 20:30 | 24.57622 | 39.70345 | 2133 ft | 13 kts | 222° |
| 2026-04-27 20:30 | 24.57519 | 39.70356 | 2131 ft | 20 kts | 169° |
| 2026-04-27 20:30 | 24.57233 | 39.70418 | 2125 ft | 74 kts | 168° |
| 2026-04-27 20:30 | 24.56510 | 39.70572 | 2117 ft | 134 kts | 169° |
| 2026-04-27 20:31 | 24.55423 | 39.70802 | 2115 ft | 180 kts | 169° |
| 2026-04-27 20:31 | 24.54216 | 39.71071 | 2825 ft | 175 kts | 169° |
| 2026-04-27 20:31 | 24.53022 | 39.71365 | 3514 ft | 180 kts | 169° |
| 2026-04-27 20:31 | 24.51739 | 39.71686 | 3871 ft | 202 kts | 169° |
| 2026-04-27 20:32 | 24.50293 | 39.72042 | 4041 ft | 223 kts | 169° |
| 2026-04-27 20:32 | 24.48687 | 39.72443 | 4244 ft | 249 kts | 169° |
| 2026-04-27 20:32 | 24.46928 | 39.72887 | 4607 ft | 269 kts | 169° |
| 2026-04-27 20:32 | 24.45071 | 39.73367 | 5299 ft | 277 kts | 169° |
| 2026-04-27 20:33 | 24.43186 | 39.73885 | 6013 ft | 283 kts | 170° |
| 2026-04-27 20:33 | 24.41257 | 39.74460 | 6726 ft | 290 kts | 169° |
| 2026-04-27 20:33 | 24.39307 | 39.75057 | 7494 ft | 292 kts | 169° |
| 2026-04-27 20:33 | 24.37333 | 39.75649 | 7911 ft | 295 kts | 169° |
| 2026-04-27 20:34 | 24.35340 | 39.76234 | 8587 ft | 296 kts | 169° |
| 2026-04-27 20:34 | 24.33349 | 39.76811 | 9347 ft | 297 kts | 169° |
| 2026-04-27 20:34 | 24.31325 | 39.77348 | 9844 ft | 300 kts | 172° |
| 2026-04-27 20:34 | 24.29281 | 39.77775 | 9975 ft | 297 kts | 173° |
| 2026-04-27 20:35 | 24.27250 | 39.78190 | 10009 ft | 300 kts | 173° |
| 2026-04-27 20:35 | 24.25849 | 39.78472 | 10014 ft | 320 kts | 173° |
| 2026-04-27 20:35 | 24.23559 | 39.78921 | 10005 ft | 345 kts | 173° |
| 2026-04-27 20:35 | 24.20493 | 39.79519 | 10039 ft | 322 kts | 174° |
| 2026-04-27 20:36 | 24.19038 | 39.79657 | 10212 ft | 317 kts | 185° |
| 2026-04-27 20:36 | 24.16130 | 39.78832 | 10441 ft | 340 kts | 211° |
| 2026-04-27 20:36 | 24.14216 | 39.77276 | 10867 ft | 347 kts | 220° |
| 2026-04-27 20:36 | 24.12332 | 39.75593 | 11494 ft | 351 kts | 220° |
| 2026-04-27 20:37 | 24.10431 | 39.73901 | 12198 ft | 353 kts | 220° |
| 2026-04-27 20:37 | 24.08520 | 39.72204 | 12913 ft | 355 kts | 220° |
| 2026-04-27 20:37 | 24.07241 | 39.71070 | 13398 ft | 356 kts | 220° |
| 2026-04-27 20:37 | 24.05319 | 39.69366 | 14117 ft | 357 kts | 220° |
| 2026-04-27 20:38 | 24.03385 | 39.67653 | 14810 ft | 359 kts | 220° |
| 2026-04-27 20:38 | 24.01439 | 39.65934 | 15479 ft | 360 kts | 220° |
| 2026-04-27 20:38 | 23.99490 | 39.64213 | 16120 ft | 361 kts | 220° |
| 2026-04-27 20:38 | 23.97527 | 39.62479 | 16750 ft | 363 kts | 220° |
| 2026-04-27 20:39 | 23.95557 | 39.60740 | 17359 ft | 365 kts | 220° |
| 2026-04-27 20:39 | 23.93572 | 39.58987 | 17950 ft | 367 kts | 221° |
| 2026-04-27 20:39 | 23.91582 | 39.57229 | 18546 ft | 368 kts | 221° |
| 2026-04-27 20:39 | 23.89583 | 39.55464 | 19120 ft | 370 kts | 221° |
| 2026-04-27 20:40 | 23.87577 | 39.53696 | 19675 ft | 371 kts | 221° |
| 2026-04-27 20:40 | 23.85564 | 39.51917 | 20222 ft | 373 kts | 221° |
| 2026-04-27 20:40 | 23.83544 | 39.50133 | 20722 ft | 375 kts | 221° |
| 2026-04-27 20:40 | 23.81508 | 39.48340 | 21246 ft | 376 kts | 221° |
| 2026-04-27 20:41 | 23.79470 | 39.46544 | 21739 ft | 378 kts | 221° |
| 2026-04-27 20:41 | 23.77420 | 39.44736 | 22200 ft | 379 kts | 221° |
| 2026-04-27 20:41 | 23.75250 | 39.43085 | 22666 ft | 384 kts | 212° |
| 2026-04-27 20:41 | 23.72794 | 39.41898 | 23081 ft | 390 kts | 203° |
| 2026-04-27 20:42 | 23.70186 | 39.40997 | 23473 ft | 393 kts | 202° |
| 2026-04-27 20:42 | 23.67568 | 39.40100 | 23794 ft | 396 kts | 202° |
| 2026-04-27 20:42 | 23.64959 | 39.39204 | 24107 ft | 399 kts | 202° |
| 2026-04-27 20:42 | 23.62311 | 39.38291 | 24550 ft | 399 kts | 202° |
| 2026-04-27 20:43 | 23.59657 | 39.37377 | 24924 ft | 402 kts | 203° |
| 2026-04-27 20:43 | 23.56983 | 39.36453 | 25310 ft | 404 kts | 203° |
| 2026-04-27 20:43 | 23.54293 | 39.35521 | 25678 ft | 406 kts | 203° |
| 2026-04-27 20:43 | 23.51595 | 39.34587 | 26022 ft | 408 kts | 203° |
| 2026-04-27 20:44 | 23.48884 | 39.33648 | 26340 ft | 410 kts | 203° |
| 2026-04-27 20:44 | 23.46155 | 39.32704 | 26640 ft | 413 kts | 203° |
| 2026-04-27 20:44 | 23.43408 | 39.31756 | 26931 ft | 415 kts | 203° |
| 2026-04-27 20:44 | 23.40646 | 39.30805 | 27227 ft | 418 kts | 203° |
| 2026-04-27 20:45 | 23.37867 | 39.29849 | 27499 ft | 420 kts | 204° |
| 2026-04-27 20:45 | 23.35076 | 39.28889 | 27761 ft | 422 kts | 203° |
| 2026-04-27 20:45 | 23.32268 | 39.27925 | 27904 ft | 423 kts | 204° |
| 2026-04-27 20:45 | 23.29465 | 39.26962 | 27921 ft | 422 kts | 204° |
| 2026-04-27 20:46 | 23.26669 | 39.26001 | 27921 ft | 421 kts | 204° |
| 2026-04-27 20:46 | 23.23875 | 39.25041 | 27921 ft | 422 kts | 204° |
| 2026-04-27 20:46 | 23.21076 | 39.24079 | 27929 ft | 422 kts | 204° |
| 2026-04-27 20:46 | 23.18280 | 39.23114 | 27920 ft | 422 kts | 204° |
| 2026-04-27 20:47 | 23.15485 | 39.22153 | 27928 ft | 422 kts | 204° |
| 2026-04-27 20:47 | 23.12685 | 39.21191 | 27922 ft | 421 kts | 204° |
| 2026-04-27 20:47 | 23.09891 | 39.20231 | 27922 ft | 422 kts | 204° |
| 2026-04-27 20:47 | 23.07083 | 39.19264 | 27876 ft | 424 kts | 204° |
| 2026-04-27 20:48 | 23.04265 | 39.18292 | 26808 ft | 428 kts | 203° |
| 2026-04-27 20:48 | 23.01372 | 39.17292 | 25329 ft | 441 kts | 203° |
| 2026-04-27 20:48 | 22.98473 | 39.16298 | 24841 ft | 429 kts | 202° |
| 2026-04-27 20:48 | 22.95660 | 39.15346 | 24591 ft | 420 kts | 202° |
| 2026-04-27 20:49 | 22.92885 | 39.14406 | 24341 ft | 416 kts | 202° |
| 2026-04-27 20:49 | 22.90123 | 39.13468 | 24090 ft | 414 kts | 202° |
| 2026-04-27 20:49 | 22.87378 | 39.12531 | 23838 ft | 412 kts | 202° |
| 2026-04-27 20:49 | 22.84650 | 39.11597 | 23587 ft | 411 kts | 202° |
| 2026-04-27 20:50 | 22.81962 | 39.10674 | 23340 ft | 410 kts | 202° |
| 2026-04-27 20:50 | 22.79177 | 39.09969 | 23088 ft | 414 kts | 193° |
| 2026-04-27 20:50 | 22.76285 | 39.09776 | 22838 ft | 420 kts | 185° |
| 2026-04-27 20:50 | 22.73362 | 39.09854 | 22586 ft | 419 kts | 184° |
| 2026-04-27 20:51 | 22.70450 | 39.09934 | 22336 ft | 418 kts | 184° |
| 2026-04-27 20:51 | 22.67551 | 39.10022 | 22084 ft | 412 kts | 184° |
| 2026-04-27 20:51 | 22.64734 | 39.10119 | 21832 ft | 399 kts | 184° |
| 2026-04-27 20:51 | 22.62000 | 39.10220 | 21580 ft | 386 kts | 184° |
| 2026-04-27 20:52 | 22.59351 | 39.10316 | 21328 ft | 375 kts | 184° |
| 2026-04-27 20:52 | 22.56779 | 39.10405 | 21081 ft | 365 kts | 185° |
| 2026-04-27 20:52 | 22.54278 | 39.10490 | 20829 ft | 355 kts | 185° |
| 2026-04-27 20:52 | 22.51838 | 39.10570 | 20583 ft | 346 kts | 185° |
| 2026-04-27 20:53 | 22.49465 | 39.10628 | 20329 ft | 337 kts | 186° |
| 2026-04-27 20:53 | 22.47139 | 39.10648 | 20074 ft | 329 kts | 186° |
| 2026-04-27 20:53 | 22.44870 | 39.10648 | 19825 ft | 324 kts | 187° |
| 2026-04-27 20:53 | 22.42621 | 39.10640 | 19574 ft | 322 kts | 187° |
| 2026-04-27 20:54 | 22.38154 | 39.10639 | 19070 ft | 320 kts | 186° |
| 2026-04-27 20:54 | 22.35923 | 39.10648 | 18826 ft | 319 kts | 186° |
| 2026-04-27 20:54 | 22.33708 | 39.10655 | 18574 ft | 318 kts | 186° |
| 2026-04-27 20:55 | 22.31520 | 39.10663 | 18324 ft | 318 kts | 186° |
| 2026-04-27 20:55 | 22.29308 | 39.10671 | 18078 ft | 318 kts | 186° |
| 2026-04-27 20:55 | 22.27102 | 39.10679 | 17826 ft | 317 kts | 186° |
| 2026-04-27 20:55 | 22.24895 | 39.10693 | 17573 ft | 316 kts | 186° |
| 2026-04-27 20:56 | 22.22697 | 39.10708 | 17321 ft | 315 kts | 186° |
| 2026-04-27 20:56 | 22.20511 | 39.10722 | 17003 ft | 314 kts | 185° |
| 2026-04-27 20:56 | 22.18323 | 39.10737 | 16577 ft | 314 kts | 185° |
| 2026-04-27 20:56 | 22.16136 | 39.10752 | 16150 ft | 315 kts | 185° |
| 2026-04-27 20:57 | 22.13947 | 39.10760 | 15797 ft | 313 kts | 185° |
| 2026-04-27 20:57 | 22.11765 | 39.10771 | 15398 ft | 313 kts | 185° |
| 2026-04-27 20:57 | 22.09595 | 39.10924 | 15092 ft | 314 kts | 175° |
| 2026-04-27 20:57 | 22.07495 | 39.11604 | 14803 ft | 316 kts | 165° |
| 2026-04-27 20:58 | 22.05440 | 39.12429 | 14205 ft | 314 kts | 165° |
| 2026-04-27 20:58 | 22.03394 | 39.13242 | 13542 ft | 312 kts | 165° |
| 2026-04-27 20:58 | 22.01363 | 39.14045 | 12910 ft | 310 kts | 164° |
| 2026-04-27 20:58 | 21.99352 | 39.14840 | 12272 ft | 307 kts | 164° |
| 2026-04-27 20:59 | 21.97354 | 39.15628 | 11594 ft | 305 kts | 163° |
| 2026-04-27 20:59 | 21.95368 | 39.16412 | 11021 ft | 300 kts | 163° |
| 2026-04-27 20:59 | 21.93420 | 39.17182 | 10492 ft | 297 kts | 163° |
| 2026-04-27 20:59 | 21.91484 | 39.17948 | 9986 ft | 295 kts | 162° |
| 2026-04-27 21:00 | 21.89557 | 39.18707 | 9566 ft | 297 kts | 162° |
| 2026-04-27 21:00 | 21.87626 | 39.19468 | 9298 ft | 290 kts | 162° |
| 2026-04-27 21:00 | 21.85819 | 39.20185 | 9182 ft | 270 kts | 162° |
| 2026-04-27 21:00 | 21.84115 | 39.20863 | 8987 ft | 254 kts | 162° |
| 2026-04-27 21:01 | 21.82478 | 39.21513 | 8557 ft | 249 kts | 162° |
| 2026-04-27 21:01 | 21.80857 | 39.22151 | 8063 ft | 247 kts | 162° |
| 2026-04-27 21:01 | 21.79247 | 39.22780 | 7516 ft | 246 kts | 162° |
| 2026-04-27 21:01 | 21.77643 | 39.23409 | 6997 ft | 245 kts | 161° |
| 2026-04-27 21:02 | 21.76040 | 39.24038 | 6482 ft | 245 kts | 162° |
| 2026-04-27 21:02 | 21.74438 | 39.24666 | 5977 ft | 244 kts | 161° |
| 2026-04-27 21:02 | 21.72847 | 39.25288 | 5456 ft | 243 kts | 161° |
| 2026-04-27 21:02 | 21.71260 | 39.25905 | 4957 ft | 243 kts | 161° |
| 2026-04-27 21:03 | 21.69674 | 39.26528 | 4623 ft | 242 kts | 160° |
| 2026-04-27 21:03 | 21.68100 | 39.27152 | 4327 ft | 240 kts | 161° |
| 2026-04-27 21:03 | 21.66558 | 39.27763 | 4184 ft | 232 kts | 160° |
| 2026-04-27 21:03 | 21.65064 | 39.28361 | 4062 ft | 226 kts | 160° |
| 2026-04-27 21:04 | 21.63612 | 39.28937 | 3938 ft | 219 kts | 161° |
| 2026-04-27 21:04 | 21.62199 | 39.29497 | 3772 ft | 215 kts | 160° |
| 2026-04-27 21:04 | 21.60799 | 39.30046 | 3539 ft | 214 kts | 161° |
| 2026-04-27 21:04 | 21.59406 | 39.30589 | 3320 ft | 213 kts | 160° |
| 2026-04-27 21:05 | 21.58017 | 39.31129 | 3078 ft | 213 kts | 160° |
| 2026-04-27 21:05 | 21.56634 | 39.31667 | 2852 ft | 211 kts | 160° |
| 2026-04-27 21:05 | 21.55259 | 39.32208 | 2629 ft | 210 kts | 160° |
| 2026-04-27 21:05 | 21.53892 | 39.32746 | 2461 ft | 206 kts | 160° |
| 2026-04-27 21:06 | 21.52589 | 39.33257 | 2346 ft | 194 kts | 160° |
| 2026-04-27 21:06 | 21.51352 | 39.33742 | 2214 ft | 185 kts | 161° |
| 2026-04-27 21:06 | 21.50131 | 39.34219 | 2140 ft | 193 kts | 160° |
| 2026-04-27 21:06 | 21.48853 | 39.34717 | 2119 ft | 196 kts | 161° |
| 2026-04-27 21:07 | 21.47516 | 39.34920 | 2110 ft | 196 kts | 189° |
| 2026-04-27 21:07 | 21.46300 | 39.34375 | 2119 ft | 192 kts | 221° |
| 2026-04-27 21:07 | 21.45400 | 39.33324 | 2133 ft | 192 kts | 232° |
| 2026-04-27 21:07 | 21.44535 | 39.32226 | 2131 ft | 192 kts | 232° |
| 2026-04-27 21:08 | 21.43673 | 39.31135 | 2128 ft | 192 kts | 232° |
| 2026-04-27 21:08 | 21.42961 | 39.29947 | 2121 ft | 189 kts | 255° |
| 2026-04-27 21:08 | 21.42915 | 39.28567 | 2128 ft | 186 kts | 286° |
| 2026-04-27 21:08 | 21.43543 | 39.27383 | 2130 ft | 184 kts | 316° |
| 2026-04-27 21:09 | 21.44646 | 39.26703 | 2135 ft | 184 kts | 340° |
| 2026-04-27 21:09 | 21.45932 | 39.26203 | 2127 ft | 185 kts | 339° |
| 2026-04-27 21:09 | 21.47067 | 39.25757 | 2122 ft | 186 kts | 339° |
| 2026-04-27 21:09 | 21.48280 | 39.25282 | 2122 ft | 185 kts | 339° |
| 2026-04-27 21:10 | 21.49492 | 39.24804 | 2121 ft | 185 kts | 339° |
| 2026-04-27 21:10 | 21.50700 | 39.24331 | 2121 ft | 185 kts | 339° |
| 2026-04-27 21:10 | 21.51912 | 39.23856 | 2130 ft | 186 kts | 339° |
| 2026-04-27 21:10 | 21.53133 | 39.23376 | 2136 ft | 187 kts | 339° |
| 2026-04-27 21:11 | 21.54346 | 39.22898 | 2141 ft | 181 kts | 339° |
| 2026-04-27 21:11 | 21.55469 | 39.22457 | 2127 ft | 166 kts | 338° |
| 2026-04-27 21:11 | 21.56516 | 39.22044 | 2093 ft | 157 kts | 338° |
| 2026-04-27 21:11 | 21.57528 | 39.21645 | 1939 ft | 154 kts | 339° |
| 2026-04-27 21:12 | 21.58531 | 39.21251 | 1751 ft | 153 kts | 340° |
| 2026-04-27 21:12 | 21.59526 | 39.20859 | 1564 ft | 152 kts | 341° |
| 2026-04-27 21:12 | 21.60499 | 39.20476 | 1369 ft | 150 kts | 341° |
| 2026-04-27 21:12 | 21.61466 | 39.20095 | 1177 ft | 145 kts | 341° |
| 2026-04-27 21:13 | 21.62395 | 39.19721 | 950 ft | 142 kts | 340° |
| 2026-04-27 21:13 | 21.63309 | 39.19341 | 789 ft | 140 kts | 340° |
| 2026-04-27 21:13 | 21.64223 | 39.18979 | 635 ft | 140 kts | 340° |
| 2026-04-27 21:13 | 21.65140 | 39.18635 | 414 ft | 139 kts | 341° |
| 2026-04-27 21:14 | 21.66055 | 39.18286 | 223 ft | 140 kts | 340° |
| 2026-04-27 21:14 | 21.66962 | 39.17925 | 48 ft | 139 kts | 341° |
| 2026-04-27 21:14 | 21.67767 | 39.17608 | 33 ft | 100 kts | 340° |
| 2026-04-27 21:14 | 21.68224 | 39.17431 | 28 ft | 29 kts | 339° |
| 2026-04-27 21:15 | 21.68339 | 39.17312 | 27 ft | 21 kts | 310° |
| 2026-04-27 21:15 | 21.68379 | 39.17259 | 27 ft | 0 kts | 308° |
| 2026-04-27 21:15 | 21.68402 | 39.17228 | 27 ft | 9 kts | 309° |
| 2026-04-27 21:15 | 21.68423 | 39.17187 | 27 ft | 5 kts | 283° |
| 2026-04-27 21:16 | 21.68424 | 39.17167 | 27 ft | 0 kts | 270° |
| 2026-04-27 21:16 | 21.68397 | 39.17139 | 28 ft | 7 kts | 197° |
| 2026-04-27 21:17 | 21.68358 | 39.17144 | 28 ft | 5 kts | 159° |
| 2026-04-27 21:17 | 21.68331 | 39.17155 | 28 ft | 4 kts | 162° |
| 2026-04-27 21:17 | 21.68278 | 39.17173 | 28 ft | 11 kts | 161° |
| 2026-04-27 21:17 | 21.68214 | 39.17196 | 29 ft | 9 kts | 161° |
| 2026-04-27 21:18 | 21.68157 | 39.17220 | 29 ft | 11 kts | 158° |
| 2026-04-27 21:18 | 21.68063 | 39.17260 | 30 ft | 18 kts | 159° |
| 2026-04-27 21:18 | 21.68022 | 39.17274 | 30 ft | 0 kts | 170° |
| 2026-04-27 21:18 | 21.68015 | 39.17271 | 30 ft | 4 kts | 197° |
| 2026-04-27 21:19 | 21.67980 | 39.17199 | 30 ft | 18 kts | 251° |
| 2026-04-27 21:19 | 21.67964 | 39.17147 | 30 ft | 2 kts | 251° |
| 2026-04-27 21:19 | 21.67937 | 39.17081 | 30 ft | 11 kts | 235° |
| 2026-04-27 21:20 | 21.67838 | 39.17091 | 31 ft | 11 kts | 108° |
| 2026-04-27 21:20 | 21.67844 | 39.17195 | 31 ft | 15 kts | 93° |
| 2026-04-27 21:20 | 21.67783 | 39.17268 | 31 ft | 13 kts | 155° |
| 2026-04-27 21:20 | 21.67705 | 39.17300 | 32 ft | 11 kts | 159° |
| 2026-04-27 21:21 | 21.67640 | 39.17327 | 32 ft | 9 kts | 159° |
| 2026-04-27 21:21 | 21.67584 | 39.17349 | 32 ft | 8 kts | 159° |
| 2026-04-27 21:21 | 21.67537 | 39.17368 | 32 ft | 6 kts | 160° |
| 2026-04-27 21:21 | 21.67484 | 39.17390 | 32 ft | 10 kts | 159° |
| 2026-04-27 21:22 | 21.67424 | 39.17414 | 33 ft | 8 kts | 160° |
| 2026-04-27 21:22 | 21.67373 | 39.17433 | 33 ft | 7 kts | 160° |
| 2026-04-27 21:22 | 21.67331 | 39.17449 | 33 ft | 6 kts | 160° |
| 2026-04-27 21:22 | 21.67287 | 39.17465 | 33 ft | 12 kts | 163° |
| 2026-04-27 21:23 | 21.67238 | 39.17478 | 33 ft | 8 kts | 184° |
| 2026-04-27 21:23 | 21.67194 | 39.17434 | 32 ft | 6 kts | 236° |
| 2026-04-27 21:23 | 21.67173 | 39.17401 | 33 ft | 5 kts | 231° |
| 2026-04-27 21:23 | 21.67153 | 39.17378 | 33 ft | 4 kts | 226° |